createdAt,value
2023-04-02T00:01:37.309Z,97181.38
2023-04-02T00:04:41.820Z,97191.00
2023-04-02T00:07:48.915Z,97185.09
2023-04-02T00:10:54.284Z,97197.84
2023-04-02T00:14:01.834Z,97192.28
2023-04-02T00:17:06.912Z,97203.06
2023-04-02T00:20:17.876Z,97202.03
2023-04-02T00:23:21.062Z,97198.53
2023-04-02T00:26:32.637Z,97201.03
2023-04-02T00:29:35.721Z,97208.03
2023-04-02T00:32:38.887Z,97213.47
2023-04-02T00:35:44.141Z,97220.47
2023-04-02T00:38:48.782Z,97224.72
2023-04-02T00:42:04.984Z,97164.66
2023-04-02T00:45:20.346Z,97213.19
2023-04-02T00:48:41.956Z,97231.81
2023-04-02T00:51:51.392Z,97232.19
2023-04-02T00:55:04.965Z,97233.53
2023-04-02T00:58:28.479Z,97235.34
2023-04-02T01:01:37.696Z,97235.34
2023-04-02T01:04:42.073Z,97235.34
2023-04-02T01:08:01.864Z,97241.22
2023-04-02T01:11:19.560Z,97239.28
2023-04-02T01:14:37.501Z,97240.22
2023-04-02T01:18:02.888Z,97247.03
2023-04-02T01:21:37.035Z,97251.38
2023-04-02T01:24:44.145Z,97254.03
2023-04-02T01:27:52.694Z,97247.19
2023-04-02T01:30:59.677Z,97254.25
2023-04-02T01:34:04.946Z,97254.03
2023-04-02T01:37:22.227Z,97256.69
2023-04-02T01:40:38.723Z,97260.31
2023-04-02T01:43:48.918Z,97262.97
2023-04-02T01:46:55.398Z,97268.00
2023-04-02T01:50:02.608Z,97264.66
2023-04-02T01:53:08.359Z,97258.44
2023-04-02T01:56:12.242Z,97277.72
2023-04-02T01:59:17.746Z,97273.16
2023-04-02T02:02:22.881Z,97286.13
2023-04-02T02:05:26.727Z,97211.84
2023-04-02T02:08:39.387Z,97289.69
2023-04-02T02:11:45.289Z,97289.88
2023-04-02T02:14:50.336Z,97295.94
2023-04-02T02:18:00.228Z,97296.22
2023-04-02T02:21:08.791Z,97300.94
2023-04-02T02:24:20.568Z,97302.97
2023-04-02T02:27:46.280Z,97308.44
2023-04-02T02:30:52.648Z,97312.03
2023-04-02T02:34:02.008Z,97317.84
2023-04-02T02:37:07.880Z,97321.44
2023-04-02T02:40:17.253Z,97319.81
2023-04-02T02:43:21.323Z,97316.41
2023-04-02T02:46:26.552Z,97328.00
2023-04-02T02:49:36.128Z,97337.72
2023-04-02T02:52:47.347Z,97332.31
2023-04-02T02:55:56.459Z,97336.59
2023-04-02T02:59:05.316Z,97342.72
2023-04-02T03:02:16.045Z,97343.03
2023-04-02T03:05:25.066Z,97349.44
2023-04-02T03:08:40.112Z,97346.31
2023-04-02T03:11:51.625Z,97334.97
2023-04-02T03:15:04.218Z,97362.84
2023-04-02T03:18:14.265Z,97375.66
2023-04-02T03:21:26.478Z,97374.13
2023-04-02T03:24:37.085Z,97376.06
2023-04-02T03:27:45.176Z,97383.03
2023-04-02T03:30:54.057Z,97391.69
2023-04-02T03:35:17.288Z,97392.53
2023-04-02T03:38:26.511Z,97376.91
2023-04-02T03:41:35.846Z,97408.97
2023-04-02T03:44:45.885Z,97402.34
2023-04-02T03:47:56.662Z,97408.69
2023-04-02T03:51:07.456Z,97389.16
2023-04-02T03:54:16.060Z,97417.72
2023-04-02T03:57:26.548Z,97421.13
2023-04-02T04:00:36.296Z,97420.31
2023-04-02T04:03:43.007Z,97425.38
2023-04-02T04:06:52.368Z,97429.59
2023-04-02T04:09:56.368Z,97431.38
2023-04-02T04:13:07.343Z,97433.78
2023-04-02T04:16:15.972Z,97441.22
2023-04-02T04:19:25.131Z,97446.16
2023-04-02T04:22:31.821Z,97447.13
2023-04-02T04:25:50.558Z,97451.38
2023-04-02T04:29:05.413Z,97441.53
2023-04-02T04:32:18.914Z,97465.69
2023-04-02T04:35:29.701Z,97463.97
2023-04-02T04:38:39.264Z,97468.81
2023-04-02T04:41:47.487Z,97474.81
2023-04-02T04:44:56.413Z,97481.50
2023-04-02T04:48:04.169Z,97483.13
2023-04-02T04:51:16.287Z,97492.78
2023-04-02T04:54:21.248Z,97493.56
2023-04-02T04:57:33.643Z,97486.59
2023-04-02T05:00:44.865Z,97477.66
2023-04-02T05:03:55.362Z,97495.94
2023-04-02T05:07:03.765Z,97493.44
2023-04-02T05:10:18.203Z,97500.25
2023-04-02T05:13:26.259Z,97488.94
2023-04-02T05:16:34.901Z,97516.41
2023-04-02T05:19:45.328Z,97516.41
2023-04-02T05:22:54.211Z,97531.06
2023-04-02T05:26:07.890Z,97528.41
2023-04-02T05:29:18.164Z,97534.53
2023-04-02T05:32:31.154Z,97539.31
2023-04-02T05:35:37.697Z,97545.84
2023-04-02T05:38:46.720Z,97543.44
2023-04-02T05:42:01.672Z,97549.47
2023-04-02T05:45:24.368Z,97546.09
2023-04-02T05:48:32.495Z,97545.84
2023-04-02T05:51:41.233Z,97562.91
2023-04-02T05:54:50.336Z,97563.63
2023-04-02T05:58:21.349Z,97568.56
2023-04-02T06:01:36.592Z,97557.19
2023-04-02T06:04:51.385Z,97575.09
2023-04-02T06:07:59.795Z,97582.84
2023-04-02T06:11:11.189Z,97588.00
2023-04-02T06:14:18.692Z,97589.84
2023-04-02T06:17:23.680Z,97501.06
2023-04-02T06:20:28.291Z,97599.31
2023-04-02T06:23:38.108Z,97598.19
2023-04-02T06:26:46.587Z,97601.03
2023-04-02T06:29:58.205Z,97609.19
2023-04-02T06:33:04.891Z,97608.31
2023-04-02T06:36:12.607Z,97613.50
2023-04-02T06:39:20.038Z,97616.16
2023-04-02T06:42:28.420Z,97630.53
2023-04-02T06:45:55.413Z,97639.25
2023-04-02T06:49:17.281Z,97640.94
2023-04-02T06:52:26.817Z,97641.94
2023-04-02T06:55:34.990Z,97648.72
2023-04-02T06:58:38.644Z,97651.31
2023-04-02T07:01:49.074Z,97664.13
2023-04-02T07:04:53.157Z,97657.09
2023-04-02T07:07:57.580Z,97670.00
2023-04-02T07:11:00.775Z,97672.72
2023-04-02T07:14:05.160Z,97669.59
2023-04-02T07:17:16.699Z,97664.97
2023-04-02T07:20:28.031Z,97672.50
2023-04-02T07:23:32.821Z,97676.50
2023-04-02T07:26:36.318Z,97680.09
2023-04-02T07:29:42.778Z,97693.59
2023-04-02T07:32:47.641Z,97690.19
2023-04-02T07:35:52.345Z,97690.00
2023-04-02T07:38:56.011Z,97696.09
2023-04-02T07:42:01.849Z,97696.31
2023-04-02T07:45:06.199Z,97703.00
2023-04-02T07:48:13.171Z,97720.91
2023-04-02T07:51:18.576Z,97715.66
2023-04-02T07:54:21.792Z,97719.84
2023-04-02T07:57:25.066Z,97729.19
2023-04-02T08:00:29.369Z,97734.44
2023-04-02T08:03:34.137Z,97739.66
2023-04-02T08:06:37.384Z,97736.94
2023-04-02T08:09:40.585Z,97755.22
2023-04-02T08:12:43.809Z,97755.00
2023-04-02T08:15:47.049Z,97753.34
2023-04-02T08:18:51.657Z,97761.75
2023-04-02T08:21:55.192Z,97765.09
2023-04-02T08:24:58.355Z,97766.75
2023-04-02T08:28:02.394Z,97769.28
2023-04-02T08:31:05.606Z,97782.38
2023-04-02T08:34:10.547Z,97783.66
2023-04-02T08:37:14.805Z,97797.16
2023-04-02T08:40:23.880Z,97798.75
2023-04-02T08:43:41.861Z,97803.94
2023-04-02T08:46:48.453Z,97812.88
2023-04-02T08:49:59.874Z,97825.28
2023-04-02T08:53:06.269Z,97832.06
2023-04-02T08:56:17.557Z,97832.00
2023-04-02T08:59:29.158Z,97824.81
2023-04-02T09:02:39.081Z,97841.84
2023-04-02T09:05:45.137Z,97846.78
2023-04-02T09:08:51.407Z,97857.66
2023-04-02T09:12:00.547Z,97857.56
2023-04-02T09:15:18.465Z,97862.47
2023-04-02T09:18:21.863Z,97865.59
2023-04-02T09:21:35.929Z,97874.56
2023-04-02T09:24:39.101Z,97884.06
2023-04-02T09:27:42.291Z,97887.78
2023-04-02T09:35:24.810Z,97899.69
2023-04-02T09:38:31.661Z,97892.72
2023-04-02T09:41:37.417Z,97916.47
2023-04-02T09:44:40.841Z,97918.38
2023-04-02T09:47:44.178Z,97913.81
2023-04-02T09:50:48.782Z,97926.59
2023-04-02T09:54:06.880Z,97929.13
2023-04-02T09:57:21.253Z,97926.00
2023-04-02T10:00:41.824Z,97931.31
2023-04-02T10:03:46.442Z,97934.59
2023-04-02T10:06:53.800Z,97933.06
2023-04-02T10:09:59.789Z,97944.25
2023-04-02T10:13:07.654Z,97949.78
2023-04-02T10:16:15.415Z,97950.00
2023-04-02T10:19:26.371Z,97957.41
2023-04-02T10:22:31.086Z,97953.81
2023-04-02T10:25:43.219Z,97966.44
2023-04-02T10:29:03.968Z,97965.97
2023-04-02T10:32:13.086Z,97975.28
2023-04-02T10:35:25.236Z,97940.63
2023-04-02T10:38:52.080Z,97964.75
2023-04-02T10:42:04.712Z,97975.53
2023-04-02T10:45:21.073Z,97956.69
2023-04-02T10:48:31.998Z,97983.47
2023-04-02T10:51:43.792Z,97990.41
2023-04-02T10:54:51.045Z,98000.78
2023-04-02T10:57:57.774Z,98003.78
2023-04-02T11:01:04.751Z,98023.06
2023-04-02T11:04:14.375Z,98024.06
2023-04-02T11:07:21.881Z,98037.13
2023-04-02T11:10:28.468Z,97993.38
2023-04-02T11:13:36.847Z,98041.69
2023-04-02T11:16:43.348Z,98005.84
2023-04-02T11:19:47.656Z,98035.00
2023-04-02T11:23:06.362Z,98049.72
2023-04-02T11:26:41.322Z,98039.81
2023-04-02T11:29:46.592Z,98038.38
2023-04-02T11:32:51.194Z,98034.44
2023-04-02T11:35:54.650Z,98048.53
2023-04-02T11:39:04.618Z,98041.59
2023-04-02T11:42:28.033Z,98021.81
2023-04-02T11:45:56.196Z,98047.28
2023-04-02T11:49:54.326Z,98063.25
2023-04-02T11:53:04.868Z,98065.94
2023-04-02T11:56:18.204Z,98081.28
2023-04-02T11:59:27.350Z,98091.59
2023-04-02T12:02:38.087Z,98090.91
2023-04-02T12:05:47.588Z,98095.78
2023-04-02T12:09:05.683Z,98095.31
2023-04-02T12:12:18.553Z,98098.84
2023-04-02T12:15:47.574Z,98100.59
2023-04-02T12:18:53.998Z,98105.25
2023-04-02T12:21:57.760Z,98115.84
2023-04-02T12:25:07.019Z,98111.81
2023-04-02T12:28:19.630Z,98119.25
2023-04-02T12:31:25.937Z,98136.00
2023-04-02T12:34:31.343Z,98133.50
2023-04-02T12:37:34.788Z,98144.53
2023-04-02T12:40:38.174Z,98143.88
2023-04-02T12:43:41.766Z,98149.13
2023-04-02T12:46:47.212Z,98141.78
2023-04-02T12:49:51.214Z,98155.28
2023-04-02T12:52:58.804Z,98149.53
2023-04-02T12:56:02.842Z,98165.03
2023-04-02T12:59:06.359Z,98157.06
2023-04-02T13:02:21.123Z,98158.75
2023-04-02T13:05:36.058Z,98096.88
2023-04-02T13:08:42.939Z,98166.09
2023-04-02T13:11:46.139Z,98166.00
2023-04-02T13:14:53.548Z,98181.94
2023-04-02T13:18:08.643Z,98177.84
2023-04-02T13:21:28.335Z,98178.63
2023-04-02T13:24:34.084Z,98184.25
2023-04-02T13:27:37.160Z,98187.16
2023-04-02T13:30:40.334Z,98187.94
2023-04-02T13:33:45.181Z,98175.72
2023-04-02T13:36:48.923Z,98188.59
2023-04-02T13:39:52.062Z,98187.34
2023-04-02T13:42:55.274Z,98195.97
2023-04-02T13:46:00.847Z,98190.81
2023-04-02T13:49:05.422Z,98193.72
2023-04-02T13:52:14.732Z,98193.88
2023-04-02T13:55:19.179Z,98195.41
2023-04-02T13:58:22.829Z,98202.47
2023-04-02T14:01:27.124Z,98212.72
2023-04-02T14:04:35.469Z,98203.84
2023-04-02T14:07:51.583Z,98224.88
2023-04-02T14:11:17.906Z,98229.00
2023-04-02T14:14:33.088Z,98216.56
2023-04-02T14:17:48.294Z,98245.91
2023-04-02T14:21:05.598Z,98243.09
2023-04-02T14:24:19.471Z,98248.47
2023-04-02T14:27:30.803Z,98253.94
2023-04-02T14:30:44.466Z,98252.97
2023-04-02T14:33:56.339Z,98259.97
2023-04-02T14:37:09.062Z,98263.00
2023-04-02T14:40:22.922Z,98275.41
2023-04-02T14:43:31.699Z,98280.56
2023-04-02T14:46:38.180Z,98286.94
2023-04-02T14:49:46.664Z,98292.31
2023-04-02T14:52:54.798Z,98301.59
2023-04-02T14:56:00.446Z,98294.59
2023-04-02T14:59:22.194Z,98299.59
2023-04-02T15:02:36.000Z,98302.00
2023-04-02T15:05:43.501Z,98291.53
2023-04-02T15:09:06.226Z,98310.56
2023-04-02T15:12:20.291Z,98317.97
2023-04-02T15:15:40.312Z,98323.59
2023-04-02T15:18:43.846Z,98328.00
2023-04-02T15:22:05.214Z,98327.13
2023-04-02T15:25:24.037Z,98330.28
2023-04-02T15:28:31.190Z,98336.22
2023-04-02T15:35:20.437Z,98343.47
2023-04-02T15:38:27.168Z,98340.06
2023-04-02T15:41:35.379Z,98340.19
2023-04-02T15:44:50.555Z,98354.22
2023-04-02T15:48:09.970Z,98353.13
2023-04-02T15:51:34.693Z,98354.94
2023-04-02T15:55:09.633Z,98357.72
2023-04-02T15:58:28.443Z,98370.72
2023-04-02T16:01:39.331Z,98375.75
2023-04-02T16:04:51.780Z,98391.19
2023-04-02T16:08:20.705Z,98379.53
2023-04-02T16:11:25.176Z,98378.16
2023-04-02T16:14:30.309Z,98399.81
2023-04-02T16:17:40.563Z,98411.69
2023-04-02T16:20:47.239Z,98409.38
2023-04-02T16:23:52.285Z,98406.94
2023-04-02T16:27:01.059Z,98411.44
2023-04-02T16:30:35.105Z,98412.09
2023-04-02T16:33:51.113Z,98415.78
2023-04-02T16:37:03.010Z,98396.50
2023-04-02T16:40:18.267Z,98432.13
2023-04-02T16:43:31.427Z,98429.56
2023-04-02T16:46:44.484Z,98445.63
2023-04-02T16:49:55.330Z,98438.28
2023-04-02T16:53:07.922Z,98447.47
2023-04-02T16:56:36.500Z,98446.72
2023-04-02T16:59:49.368Z,98445.84
2023-04-02T17:03:10.010Z,98458.56
2023-04-02T17:06:23.942Z,98452.88
2023-04-02T17:09:35.521Z,98462.97
2023-04-02T17:12:46.022Z,98465.56
2023-04-02T17:15:54.835Z,98472.47
2023-04-02T17:18:59.032Z,98485.56
2023-04-02T17:22:05.189Z,98493.88
2023-04-02T17:25:18.885Z,98494.94
2023-04-02T17:28:29.359Z,98494.97
2023-04-02T17:31:35.774Z,98509.63
2023-04-02T17:34:39.040Z,98506.06
2023-04-02T17:37:48.206Z,98513.81
2023-04-02T17:41:00.510Z,98519.19
2023-04-02T17:44:21.879Z,98519.34
2023-04-02T17:47:33.319Z,98534.66
2023-04-02T17:50:47.566Z,98518.63
2023-04-02T17:54:03.144Z,98530.50
2023-04-02T17:57:24.430Z,98535.78
2023-04-02T18:00:44.024Z,98545.00
2023-04-02T18:03:53.824Z,98547.81
2023-04-02T18:07:11.789Z,98565.00
2023-04-02T18:10:18.760Z,98581.38
2023-04-02T18:13:33.880Z,98578.59
2023-04-02T18:16:49.405Z,98589.94
2023-04-02T18:19:57.857Z,98594.34
2023-04-02T18:23:08.683Z,98599.34
2023-04-02T18:26:19.522Z,98608.88
2023-04-02T18:29:36.091Z,98615.63
2023-04-02T18:32:54.845Z,98620.03
2023-04-02T18:36:05.191Z,98624.28
2023-04-02T18:39:15.585Z,98626.88
2023-04-02T18:42:33.242Z,98637.97
2023-04-02T18:45:49.523Z,98643.22
2023-04-02T18:48:58.628Z,98647.59
2023-04-02T18:52:04.349Z,98648.50
2023-04-02T18:55:15.965Z,98652.75
2023-04-02T18:58:26.330Z,98657.03
2023-04-02T19:01:35.091Z,98665.69
2023-04-02T19:04:44.170Z,98668.34
2023-04-02T19:07:52.430Z,98680.31
2023-04-02T19:11:00.566Z,98680.28
2023-04-02T19:14:11.537Z,98657.47
2023-04-02T19:17:22.466Z,98637.09
2023-04-02T19:20:34.870Z,98681.31
2023-04-02T19:23:54.525Z,98695.72
2023-04-02T19:27:04.126Z,98685.63
2023-04-02T19:30:34.931Z,98702.59
2023-04-02T19:33:46.425Z,98720.50
2023-04-02T19:36:55.206Z,98723.09
2023-04-02T19:40:15.246Z,98727.44
2023-04-02T19:43:18.864Z,98732.53
2023-04-02T19:46:23.050Z,98723.22
2023-04-02T19:49:30.322Z,98743.69
2023-04-02T19:52:34.877Z,98732.63
2023-04-02T19:55:38.446Z,98718.16
2023-04-02T19:58:41.781Z,98737.69
2023-04-02T20:01:45.436Z,98747.06
2023-04-02T20:04:48.606Z,98747.06
2023-04-02T20:07:53.097Z,98751.34
2023-04-02T20:10:58.480Z,98758.22
2023-04-02T20:14:01.662Z,98762.56
2023-04-02T20:17:04.923Z,98772.81
2023-04-02T20:20:10.575Z,98778.75
2023-04-02T20:23:16.676Z,98774.47
2023-04-02T20:26:19.829Z,98771.03
2023-04-02T20:29:27.695Z,98782.94
2023-04-02T20:32:31.033Z,98783.84
2023-04-02T20:35:37.790Z,98791.53
2023-04-02T20:38:43.314Z,98786.41
2023-04-02T20:41:46.590Z,98797.44
2023-04-02T20:44:51.971Z,98794.94
2023-04-02T20:47:55.297Z,98805.16
2023-04-02T20:50:58.599Z,98806.91
2023-04-02T20:54:03.186Z,98822.22
2023-04-02T20:57:06.476Z,98817.16
2023-04-02T21:00:12.172Z,98821.41
2023-04-02T21:03:16.901Z,98824.84
2023-04-02T21:06:23.017Z,98825.66
2023-04-02T21:09:27.505Z,98834.19
2023-04-02T21:12:31.799Z,98831.66
2023-04-02T21:15:35.281Z,98829.94
2023-04-02T21:18:38.642Z,98829.94
2023-04-02T21:21:44.112Z,98829.94
2023-04-02T21:24:48.898Z,98835.09
2023-04-02T21:27:52.050Z,98832.50
2023-04-02T21:35:08.735Z,98838.59
2023-04-02T21:38:11.991Z,98846.25
2023-04-02T21:41:17.137Z,98841.94
2023-04-02T21:44:22.212Z,98846.28
2023-04-02T21:47:25.410Z,98846.34
2023-04-02T21:50:29.937Z,98853.97
2023-04-02T21:53:33.982Z,98860.78
2023-04-02T21:56:39.364Z,98862.53
2023-04-02T21:59:42.713Z,98853.13
2023-04-02T22:02:45.956Z,98860.78
2023-04-02T22:05:50.454Z,98860.81
2023-04-02T22:08:56.213Z,98837.88
2023-04-02T22:12:01.702Z,98841.22
2023-04-02T22:15:06.164Z,98865.06
2023-04-02T22:18:10.177Z,98865.06
2023-04-02T22:21:15.611Z,98856.56
2023-04-02T22:24:21.977Z,98876.16
2023-04-02T22:27:25.246Z,98868.53
2023-04-02T22:30:29.895Z,98871.91
2023-04-02T22:33:33.296Z,98872.81
2023-04-02T22:36:37.864Z,98873.69
2023-04-02T22:39:41.248Z,98879.66
2023-04-02T22:42:44.415Z,98877.97
2023-04-02T22:45:48.467Z,98880.53
2023-04-02T22:48:51.662Z,98883.97
2023-04-02T22:51:56.119Z,98878.84
2023-04-02T22:54:59.194Z,98889.06
2023-04-02T22:58:02.325Z,98877.97
2023-04-02T23:01:06.769Z,98879.69
2023-04-02T23:04:10.014Z,98878.00
2023-04-02T23:07:14.482Z,98875.41
2023-04-02T23:10:17.994Z,98843.09
2023-04-02T23:13:21.237Z,98878.88
2023-04-02T23:16:27.058Z,98880.59
2023-04-02T23:19:30.483Z,98885.72
2023-04-02T23:22:36.763Z,98886.56
2023-04-02T23:25:41.212Z,98888.25
2023-04-02T23:28:45.416Z,98887.44
2023-04-02T23:31:48.545Z,98886.59
2023-04-02T23:34:51.678Z,98884.88
2023-04-02T23:37:56.252Z,98880.66
2023-04-02T23:40:59.338Z,98882.31
2023-04-02T23:44:03.096Z,98884.84
2023-04-02T23:47:06.675Z,98887.41
2023-04-02T23:50:10.828Z,98885.72
2023-04-02T23:53:16.397Z,98884.81
2023-04-02T23:56:20.757Z,98889.16
2023-04-02T23:59:23.866Z,98884.03
